Time;durP1;ratioP1;P1;durP2;ratioP2;P2;SDS_P1;SDS_P2;PMS_P1;PMS_P2;Temp;Humidity;BMP_temperature;BMP_pressure;BME280_temperature;BME280_humidity;BME280_pressure;Samples;Min_cycle;Max_cycle;Signal;HPM_P1;HPM_P2
2022/03/05 00:01:50;;;;;;;34.03;22.02;;;;;;;;;;4929824;28;20122;-77
2022/03/05 00:04:16;;;;;;;35.00;24.45;;;;;;;;;;4944730;28;20059;-77
2022/03/05 00:06:42;;;;;;;37.17;24.13;;;;;;;;;;4946321;28;20101;-77
2022/03/05 00:09:08;;;;;;;38.85;23.88;;;;;;;;;;4951579;28;20067;-77
2022/03/05 00:11:33;;;;;;;38.15;22.38;;;;;;;;;;4957318;28;20045;-77
2022/03/05 00:13:59;;;;;;;37.55;24.08;;;;;;;;;;4952093;28;20062;-77
2022/03/05 00:16:25;;;;;;;37.42;23.98;;;;;;;;;;4958511;28;20302;-77
2022/03/05 00:18:51;;;;;;;42.45;24.60;;;;;;;;;;4961108;28;20066;-78
2022/03/05 00:21:16;;;;;;;37.33;24.55;;;;;;;;;;4928441;28;20047;-77
2022/03/05 00:23:42;;;;;;;41.88;25.10;;;;;;;;;;4945990;28;20317;-77
2022/03/05 00:26:08;;;;;;;32.22;21.48;;;;;;;;;;4955783;28;20519;-77
2022/03/05 00:28:34;;;;;;;32.55;18.65;;;;;;;;;;4951206;28;20075;-77
2022/03/05 00:31:00;;;;;;;36.65;21.38;;;;;;;;;;4931451;28;20034;-77
2022/03/05 00:33:26;;;;;;;35.65;22.00;;;;;;;;;;4957238;28;20053;-77
2022/03/05 00:35:52;;;;;;;30.77;20.75;;;;;;;;;;4961257;28;20046;-77
2022/03/05 00:38:18;;;;;;;33.22;21.88;;;;;;;;;;4944183;28;20524;-77
2022/03/05 00:40:44;;;;;;;33.95;20.33;;;;;;;;;;4943365;28;20426;-77
2022/03/05 00:43:10;;;;;;;35.42;22.45;;;;;;;;;;4953614;28;20427;-77
2022/03/05 00:45:36;;;;;;;37.78;24.35;;;;;;;;;;4951263;28;20051;-77
2022/03/05 00:48:02;;;;;;;38.42;23.55;;;;;;;;;;4949742;28;20428;-77
2022/03/05 00:50:28;;;;;;;36.38;21.52;;;;;;;;;;4944294;28;20031;-78
2022/03/05 00:52:54;;;;;;;37.28;22.45;;;;;;;;;;4947514;28;20434;-77
2022/03/05 00:55:19;;;;;;;29.33;20.50;;;;;;;;;;4942861;28;20203;-78
2022/03/05 00:57:45;;;;;;;35.13;20.48;;;;;;;;;;4948934;28;20063;-77
2022/03/05 01:00:11;;;;;;;32.30;19.38;;;;;;;;;;4951523;28;20794;-77
2022/03/05 01:02:38;;;;;;;32.28;20.10;;;;;;;;;;4926307;28;20044;-77
2022/03/05 01:05:04;;;;;;;29.02;19.38;;;;;;;;;;4920471;28;20311;-77
2022/03/05 01:07:29;;;;;;;32.20;20.15;;;;;;;;;;4931003;29;20071;-77
2022/03/05 01:09:55;;;;;;;32.88;19.58;;;;;;;;;;4933017;28;20926;-77
2022/03/05 01:12:22;;;;;;;34.63;20.33;;;;;;;;;;4961887;28;20059;-77
2022/03/05 01:14:47;;;;;;;36.10;21.95;;;;;;;;;;4946734;28;20137;-77
2022/03/05 01:17:13;;;;;;;33.13;21.17;;;;;;;;;;4930868;28;20150;-77
2022/03/05 01:19:39;;;;;;;30.58;21.08;;;;;;;;;;4942001;28;20117;-77
2022/03/05 01:22:05;;;;;;;38.40;20.92;;;;;;;;;;4942056;28;20050;-77
2022/03/05 01:24:31;;;;;;;36.85;22.02;;;;;;;;;;4932199;28;20043;-77
2022/03/05 01:26:57;;;;;;;40.13;22.35;;;;;;;;;;4943539;28;20117;-77
2022/03/05 01:29:22;;;;;;;38.20;23.15;;;;;;;;;;4943821;28;20445;-77
2022/03/05 01:31:48;;;;;;;35.70;23.17;;;;;;;;;;4936020;28;20160;-78
2022/03/05 01:34:14;;;;;;;40.30;22.95;;;;;;;;;;4959227;28;20106;-77
2022/03/05 01:36:40;;;;;;;35.67;23.58;;;;;;;;;;4930163;28;20071;-77
2022/03/05 01:39:05;;;;;;;35.33;22.20;;;;;;;;;;4936918;28;20052;-77
2022/03/05 01:41:31;;;;;;;37.83;22.67;;;;;;;;;;4934945;28;20118;-77
2022/03/05 01:43:57;;;;;;;36.00;23.10;;;;;;;;;;4928952;28;20031;-77
2022/03/05 01:46:31;;;;;;;36.38;23.15;;;;;;;;;;4934379;28;20047;-77
2022/03/05 01:48:57;;;;;;;36.90;23.52;;;;;;;;;;4961564;28;20041;-77
2022/03/05 01:51:23;;;;;;;36.70;23.17;;;;;;;;;;4961640;28;20094;-77
2022/03/05 01:53:48;;;;;;;37.30;22.70;;;;;;;;;;4958913;28;20499;-77
2022/03/05 01:56:14;;;;;;;34.78;21.67;;;;;;;;;;4962320;28;20612;-77
2022/03/05 01:58:41;;;;;;;33.83;22.80;;;;;;;;;;4946151;28;20042;-77
2022/03/05 02:01:06;;;;;;;33.30;21.52;;;;;;;;;;4959533;28;20061;-77
2022/03/05 02:03:32;;;;;;;34.97;22.20;;;;;;;;;;4961614;28;20063;-77
2022/03/05 02:05:58;;;;;;;35.33;21.20;;;;;;;;;;4962225;28;20067;-77
2022/03/05 02:08:23;;;;;;;33.10;20.67;;;;;;;;;;4962256;28;20074;-77
2022/03/05 02:10:49;;;;;;;33.97;22.58;;;;;;;;;;4942325;28;20311;-77
2022/03/05 02:13:15;;;;;;;31.65;20.33;;;;;;;;;;4958438;28;20556;-77
2022/03/05 02:15:40;;;;;;;34.65;22.58;;;;;;;;;;4961318;28;20113;-77
2022/03/05 02:18:08;;;;;;;33.45;21.05;;;;;;;;;;4960373;28;20512;-77
2022/03/05 02:20:33;;;;;;;30.50;19.83;;;;;;;;;;4964962;28;20043;-77
2022/03/05 02:22:59;;;;;;;33.63;21.15;;;;;;;;;;4948234;28;20145;-77
2022/03/05 02:25:25;;;;;;;31.20;19.40;;;;;;;;;;4945035;28;20120;-77
2022/03/05 02:27:50;;;;;;;35.60;19.45;;;;;;;;;;4959560;28;20409;-77
2022/03/05 02:30:16;;;;;;;32.20;19.77;;;;;;;;;;4965228;28;20117;-77
2022/03/05 02:32:42;;;;;;;33.83;19.30;;;;;;;;;;4963847;28;20132;-77
2022/03/05 02:35:08;;;;;;;28.23;19.02;;;;;;;;;;4965526;28;20058;-77
2022/03/05 02:37:34;;;;;;;33.20;19.17;;;;;;;;;;4947738;28;20416;-77
2022/03/05 02:39:59;;;;;;;32.85;19.80;;;;;;;;;;4950013;28;20058;-77
2022/03/05 02:42:25;;;;;;;32.25;19.00;;;;;;;;;;4963985;28;20114;-77
2022/03/05 02:44:51;;;;;;;30.15;19.73;;;;;;;;;;4958921;28;20062;-77
2022/03/05 02:47:17;;;;;;;33.17;19.88;;;;;;;;;;4965321;28;20129;-77
2022/03/05 02:49:42;;;;;;;30.65;19.65;;;;;;;;;;4965585;28;20089;-77
2022/03/05 02:52:08;;;;;;;28.45;18.15;;;;;;;;;;4963494;28;20125;-77
2022/03/05 02:54:34;;;;;;;28.42;18.00;;;;;;;;;;4964831;28;20413;-77
2022/03/05 02:56:59;;;;;;;34.63;20.27;;;;;;;;;;4963124;28;20117;-77
2022/03/05 02:59:25;;;;;;;33.33;19.15;;;;;;;;;;4957990;28;20075;-77
2022/03/05 03:01:51;;;;;;;29.88;19.15;;;;;;;;;;4958107;28;20138;-77
2022/03/05 03:04:17;;;;;;;26.67;16.58;;;;;;;;;;4943483;28;20047;-77
2022/03/05 03:06:42;;;;;;;32.38;18.27;;;;;;;;;;4956304;28;20118;-77
2022/03/05 03:09:08;;;;;;;25.92;17.92;;;;;;;;;;4931355;28;20106;-77
2022/03/05 03:11:34;;;;;;;26.45;16.20;;;;;;;;;;4953651;28;20053;-77
2022/03/05 03:13:59;;;;;;;29.30;16.02;;;;;;;;;;4946268;28;20507;-77
2022/03/05 03:16:25;;;;;;;27.92;16.90;;;;;;;;;;4949350;28;20141;-77
2022/03/05 03:18:51;;;;;;;27.40;15.93;;;;;;;;;;4949959;28;20094;-77
2022/03/05 03:21:17;;;;;;;24.20;14.90;;;;;;;;;;4928776;28;20078;-77
2022/03/05 03:23:43;;;;;;;26.08;15.77;;;;;;;;;;4960724;28;20034;-77
2022/03/05 03:26:08;;;;;;;27.27;14.20;;;;;;;;;;4947196;28;20511;-77
2022/03/05 03:28:34;;;;;;;32.13;15.68;;;;;;;;;;4944283;28;20137;-77
2022/03/05 03:31:01;;;;;;;27.30;14.90;;;;;;;;;;4968750;28;20066;-78
2022/03/05 03:33:27;;;;;;;25.75;14.57;;;;;;;;;;4944981;28;20043;-77
2022/03/05 03:35:53;;;;;;;25.02;12.68;;;;;;;;;;4939719;28;20066;-77
2022/03/05 03:38:19;;;;;;;27.23;14.95;;;;;;;;;;4953850;28;20144;-78
2022/03/05 03:40:44;;;;;;;27.27;14.77;;;;;;;;;;4962599;28;20603;-78
2022/03/05 03:43:10;;;;;;;24.70;15.23;;;;;;;;;;4962868;28;20043;-79
2022/03/05 03:45:36;;;;;;;25.05;14.48;;;;;;;;;;4963046;28;20041;-77
2022/03/05 03:48:02;;;;;;;24.48;14.85;;;;;;;;;;4959071;28;20047;-77
2022/03/05 03:50:27;;;;;;;27.40;14.93;;;;;;;;;;4960271;28;20046;-78
2022/03/05 03:52:55;;;;;;;24.63;15.18;;;;;;;;;;4959439;28;20591;-79
2022/03/05 03:55:22;;;;;;;24.50;14.40;;;;;;;;;;4931323;28;20402;-79
2022/03/05 03:57:48;;;;;;;28.65;14.63;;;;;;;;;;4955812;28;20045;-79
2022/03/05 04:00:15;;;;;;;31.85;15.57;;;;;;;;;;4947636;28;20071;-79
2022/03/05 04:02:41;;;;;;;27.55;15.23;;;;;;;;;;4958405;28;20560;-79
2022/03/05 04:05:08;;;;;;;25.58;16.30;;;;;;;;;;4947424;28;20346;-78
2022/03/05 04:10:19;;;;;;;29.80;15.65;;;;;;;;;;4961985;28;20515;-80
2022/03/05 04:12:44;;;;;;;28.52;15.52;;;;;;;;;;4952189;28;20048;-78
2022/03/05 04:15:10;;;;;;;27.98;14.88;;;;;;;;;;4957726;28;20098;-78
2022/03/05 04:17:37;;;;;;;27.65;15.63;;;;;;;;;;4951136;28;20146;-79
2022/03/05 04:20:04;;;;;;;24.67;14.68;;;;;;;;;;4951542;28;20429;-79
2022/03/05 04:22:30;;;;;;;28.23;14.98;;;;;;;;;;4953504;28;20046;-79
2022/03/05 04:24:55;;;;;;;32.50;15.13;;;;;;;;;;4949811;28;20051;-78
2022/03/05 04:27:21;;;;;;;30.13;16.10;;;;;;;;;;4948566;28;20117;-78
2022/03/05 04:29:47;;;;;;;28.95;16.42;;;;;;;;;;4952380;28;20110;-78
2022/03/05 04:32:13;;;;;;;26.67;15.32;;;;;;;;;;4957363;28;20067;-78
2022/03/05 04:34:38;;;;;;;30.25;15.80;;;;;;;;;;4958409;28;20130;-78
2022/03/05 04:37:04;;;;;;;29.27;15.65;;;;;;;;;;4958286;28;20102;-78
2022/03/05 04:39:30;;;;;;;25.55;14.73;;;;;;;;;;4943473;28;20456;-79
2022/03/05 04:41:55;;;;;;;28.52;16.00;;;;;;;;;;4935284;28;20043;-79
2022/03/05 04:44:21;;;;;;;24.88;14.02;;;;;;;;;;4955802;28;20488;-78
2022/03/05 04:46:47;;;;;;;27.45;15.15;;;;;;;;;;4954764;28;20098;-79
2022/03/05 04:49:13;;;;;;;29.17;14.52;;;;;;;;;;4962990;28;20129;-79
2022/03/05 04:51:39;;;;;;;25.85;15.07;;;;;;;;;;4962816;28;20150;-79
2022/03/05 04:54:05;;;;;;;25.40;13.98;;;;;;;;;;4963232;28;20047;-78
2022/03/05 04:56:30;;;;;;;27.42;13.43;;;;;;;;;;4964318;28;20387;-79
2022/03/05 04:58:56;;;;;;;24.50;13.93;;;;;;;;;;4963458;28;20035;-78
2022/03/05 05:01:22;;;;;;;22.70;13.50;;;;;;;;;;4954084;28;20062;-79
2022/03/05 05:03:48;;;;;;;23.10;13.52;;;;;;;;;;4960751;28;20542;-79
2022/03/05 05:06:14;;;;;;;26.60;13.77;;;;;;;;;;4942996;28;20059;-79
2022/03/05 05:08:40;;;;;;;23.23;13.10;;;;;;;;;;4929161;28;20054;-79
2022/03/05 05:11:05;;;;;;;23.90;13.40;;;;;;;;;;4936927;28;20055;-78
2022/03/05 05:13:31;;;;;;;23.88;12.77;;;;;;;;;;4949976;28;20259;-78
2022/03/05 05:15:57;;;;;;;27.38;14.52;;;;;;;;;;4950939;28;20043;-78
2022/03/05 05:18:23;;;;;;;25.00;14.15;;;;;;;;;;4934229;28;20051;-79
2022/03/05 05:20:48;;;;;;;22.23;13.25;;;;;;;;;;4949762;28;20115;-78
2022/03/05 05:23:14;;;;;;;26.27;14.52;;;;;;;;;;4952209;28;20146;-78
2022/03/05 05:25:40;;;;;;;24.40;13.57;;;;;;;;;;4977735;28;20050;-78
2022/03/05 05:28:06;;;;;;;26.23;13.35;;;;;;;;;;4973869;28;20090;-78
2022/03/05 05:30:32;;;;;;;22.92;13.63;;;;;;;;;;4958608;28;20042;-78
2022/03/05 05:32:58;;;;;;;30.15;14.27;;;;;;;;;;4960024;28;20274;-79
2022/03/05 05:35:23;;;;;;;23.27;12.57;;;;;;;;;;4964735;28;20220;-78
2022/03/05 05:37:49;;;;;;;26.48;15.68;;;;;;;;;;4933058;28;20032;-79
2022/03/05 05:40:15;;;;;;;30.83;16.30;;;;;;;;;;4935787;28;20067;-78
2022/03/05 05:42:42;;;;;;;36.95;19.80;;;;;;;;;;4957094;28;20066;-79
2022/03/05 05:45:09;;;;;;;35.80;19.20;;;;;;;;;;4958607;28;20089;-79
2022/03/05 05:47:34;;;;;;;29.52;17.17;;;;;;;;;;4958887;28;20453;-78
2022/03/05 05:50:00;;;;;;;32.13;16.42;;;;;;;;;;4951964;28;20063;-78
2022/03/05 05:52:26;;;;;;;25.40;14.73;;;;;;;;;;4952994;28;20160;-79
2022/03/05 05:54:52;;;;;;;26.73;14.40;;;;;;;;;;4958481;28;20105;-78
2022/03/05 05:57:17;;;;;;;29.88;15.15;;;;;;;;;;4956808;28;20051;-78
2022/03/05 05:59:43;;;;;;;29.05;15.57;;;;;;;;;;4948507;28;20541;-79
2022/03/05 06:02:09;;;;;;;24.85;15.25;;;;;;;;;;4954980;28;20075;-80
2022/03/05 06:04:35;;;;;;;32.25;14.50;;;;;;;;;;4936560;28;20489;-78
2022/03/05 06:07:02;;;;;;;27.08;14.38;;;;;;;;;;4956352;28;20047;-78
2022/03/05 06:09:28;;;;;;;26.67;14.48;;;;;;;;;;4969171;28;20070;-78
2022/03/05 06:11:54;;;;;;;24.25;14.18;;;;;;;;;;4958653;28;20094;-80
2022/03/05 06:14:20;;;;;;;26.38;14.18;;;;;;;;;;4967926;28;20062;-79
2022/03/05 06:16:46;;;;;;;27.42;15.18;;;;;;;;;;4985433;28;20121;-79
2022/03/05 06:19:13;;;;;;;24.67;14.40;;;;;;;;;;4968653;28;20039;-78
2022/03/05 06:21:39;;;;;;;27.15;15.23;;;;;;;;;;4961719;28;20049;-79
2022/03/05 06:24:07;;;;;;;26.92;13.43;;;;;;;;;;4978224;28;20134;-78
2022/03/05 06:26:33;;;;;;;23.10;13.40;;;;;;;;;;4948581;28;20031;-79
2022/03/05 06:29:04;;;;;;;23.80;13.55;;;;;;;;;;4969279;28;20057;-79
2022/03/05 06:31:29;;;;;;;21.08;13.07;;;;;;;;;;4959955;28;20058;-78
2022/03/05 06:33:55;;;;;;;25.25;13.98;;;;;;;;;;4949617;28;20066;-79
2022/03/05 06:36:21;;;;;;;29.42;14.10;;;;;;;;;;4944471;28;20035;-78
2022/03/05 06:38:46;;;;;;;26.45;14.27;;;;;;;;;;4952269;28;20246;-79
2022/03/05 06:41:12;;;;;;;22.80;14.25;;;;;;;;;;4967926;28;20042;-78
2022/03/05 06:43:38;;;;;;;27.85;14.55;;;;;;;;;;4951919;28;20309;-78
2022/03/05 06:46:04;;;;;;;29.42;14.23;;;;;;;;;;4972850;28;20448;-79
2022/03/05 06:48:30;;;;;;;24.33;15.00;;;;;;;;;;4943187;28;20049;-78
2022/03/05 06:50:55;;;;;;;23.98;14.00;;;;;;;;;;4950326;28;20067;-76
2022/03/05 06:53:22;;;;;;;25.33;14.80;;;;;;;;;;4945717;28;20043;-76
2022/03/05 06:55:51;;;;;;;26.80;14.27;;;;;;;;;;4956997;28;20098;-77
2022/03/05 06:58:17;;;;;;;24.30;13.15;;;;;;;;;;4951714;28;20050;-76
2022/03/05 07:00:43;;;;;;;24.15;13.90;;;;;;;;;;4952467;28;20054;-77
2022/03/05 07:03:09;;;;;;;24.88;13.35;;;;;;;;;;4953596;28;20042;-76
2022/03/05 07:05:34;;;;;;;24.48;14.00;;;;;;;;;;4948620;28;20062;-76
2022/03/05 07:08:00;;;;;;;26.17;14.52;;;;;;;;;;4949338;28;20316;-76
2022/03/05 07:10:26;;;;;;;23.20;13.68;;;;;;;;;;4953327;28;20487;-77
2022/03/05 07:12:52;;;;;;;24.73;13.45;;;;;;;;;;4943970;28;20059;-77
2022/03/05 07:15:22;;;;;;;21.77;13.70;;;;;;;;;;4982626;28;20038;-76
2022/03/05 07:17:52;;;;;;;21.92;13.27;;;;;;;;;;4982867;28;20046;-76
2022/03/05 07:20:20;;;;;;;23.05;13.80;;;;;;;;;;4964700;28;20043;-76
2022/03/05 07:22:47;;;;;;;23.63;13.68;;;;;;;;;;4965605;28;20519;-77
2022/03/05 07:25:15;;;;;;;25.35;14.45;;;;;;;;;;4966960;28;20133;-76
2022/03/05 07:27:42;;;;;;;23.48;13.10;;;;;;;;;;4950203;28;20031;-76
2022/03/05 07:30:12;;;;;;;23.38;12.70;;;;;;;;;;4965646;28;20044;-77
2022/03/05 07:32:41;;;;;;;21.58;13.70;;;;;;;;;;4967609;28;20051;-77
2022/03/05 07:35:07;;;;;;;23.23;13.15;;;;;;;;;;4966257;28;20125;-76
2022/03/05 07:37:33;;;;;;;19.73;12.27;;;;;;;;;;4968234;28;20463;-76
2022/03/05 07:39:59;;;;;;;23.52;13.48;;;;;;;;;;4975324;28;20046;-76
2022/03/05 07:42:25;;;;;;;25.77;12.32;;;;;;;;;;4966336;28;20039;-77
2022/03/05 07:44:51;;;;;;;21.75;12.25;;;;;;;;;;4955534;28;20042;-76
2022/03/05 07:47:17;;;;;;;22.23;11.65;;;;;;;;;;4957804;28;20355;-77
2022/03/05 07:49:42;;;;;;;18.73;11.57;;;;;;;;;;4952630;28;20504;-77
2022/03/05 07:52:08;;;;;;;19.52;11.30;;;;;;;;;;4955229;28;20048;-77
2022/03/05 07:54:34;;;;;;;20.23;11.52;;;;;;;;;;4950510;28;20043;-76
2022/03/05 07:57:03;;;;;;;20.60;11.60;;;;;;;;;;4965275;28;20136;-77
2022/03/05 07:59:28;;;;;;;19.05;11.40;;;;;;;;;;4948978;28;20126;-77
2022/03/05 08:01:54;;;;;;;20.90;11.43;;;;;;;;;;4980432;28;20070;-77
2022/03/05 08:04:23;;;;;;;18.05;10.55;;;;;;;;;;4964179;28;20610;-77
2022/03/05 08:06:48;;;;;;;17.65;10.63;;;;;;;;;;4956546;28;20047;-77
2022/03/05 08:09:14;;;;;;;21.23;11.85;;;;;;;;;;4952800;28;20114;-77
2022/03/05 08:11:40;;;;;;;18.92;11.32;;;;;;;;;;4950466;28;20501;-77
2022/03/05 08:14:07;;;;;;;19.30;11.25;;;;;;;;;;4956104;28;20051;-78
2022/03/05 08:16:33;;;;;;;19.17;10.73;;;;;;;;;;4938565;28;20044;-78
2022/03/05 08:19:00;;;;;;;19.05;11.65;;;;;;;;;;4951634;28;20099;-77
2022/03/05 08:21:28;;;;;;;16.70;11.38;;;;;;;;;;4946622;28;20041;-78
2022/03/05 08:23:55;;;;;;;16.42;10.95;;;;;;;;;;4926455;28;20144;-77
2022/03/05 08:26:21;;;;;;;18.42;10.95;;;;;;;;;;4934820;28;20036;-78
2022/03/05 08:28:47;;;;;;;22.13;11.98;;;;;;;;;;4956391;28;20538;-78
2022/03/05 08:31:13;;;;;;;16.20;9.82;;;;;;;;;;4924826;28;20552;-77
2022/03/05 08:33:39;;;;;;;13.77;9.38;;;;;;;;;;4943073;28;20366;-78
2022/03/05 08:36:06;;;;;;;16.30;9.48;;;;;;;;;;4927995;28;20090;-78
2022/03/05 08:38:34;;;;;;;14.20;9.13;;;;;;;;;;4951386;28;20548;-77
2022/03/05 08:41:00;;;;;;;13.85;9.18;;;;;;;;;;4962791;28;20035;-78
2022/03/05 08:43:26;;;;;;;19.70;10.82;;;;;;;;;;4961691;28;20049;-78
2022/03/05 08:45:52;;;;;;;16.23;10.07;;;;;;;;;;4964184;28;20050;-78
2022/03/05 08:48:18;;;;;;;16.90;10.13;;;;;;;;;;4946545;28;20051;-78
2022/03/05 08:50:44;;;;;;;17.33;9.90;;;;;;;;;;4959877;28;20051;-78
2022/03/05 08:53:10;;;;;;;17.52;9.63;;;;;;;;;;4941960;28;20568;-78
2022/03/05 08:55:36;;;;;;;17.65;9.43;;;;;;;;;;4962524;28;20039;-78
2022/03/05 08:58:02;;;;;;;15.77;9.98;;;;;;;;;;4959072;28;20050;-77
2022/03/05 09:00:28;;;;;;;13.60;9.52;;;;;;;;;;4937638;28;20473;-78
2022/03/05 09:02:54;;;;;;;16.23;10.10;;;;;;;;;;4961335;28;20149;-79
2022/03/05 09:05:20;;;;;;;18.30;10.15;;;;;;;;;;4945078;28;20074;-78
2022/03/05 09:07:46;;;;;;;16.48;9.77;;;;;;;;;;4937653;28;20588;-78
2022/03/05 09:10:11;;;;;;;14.93;9.77;;;;;;;;;;4943685;28;20682;-79
2022/03/05 09:12:38;;;;;;;14.57;9.50;;;;;;;;;;4941180;28;20145;-79
2022/03/05 09:15:05;;;;;;;14.32;8.82;;;;;;;;;;4963909;28;20046;-78
2022/03/05 09:17:30;;;;;;;15.93;9.52;;;;;;;;;;4930922;28;20043;-79
2022/03/05 09:19:57;;;;;;;15.48;9.38;;;;;;;;;;4948177;28;20062;-79
2022/03/05 09:22:23;;;;;;;15.30;9.30;;;;;;;;;;4944573;28;20728;-79
2022/03/05 09:24:49;;;;;;;13.52;8.38;;;;;;;;;;4958695;28;20070;-79
2022/03/05 09:27:15;;;;;;;16.73;9.73;;;;;;;;;;4952387;28;20134;-79
2022/03/05 09:29:40;;;;;;;15.77;9.73;;;;;;;;;;4926041;28;20051;-78
2022/03/05 09:32:08;;;;;;;16.85;9.18;;;;;;;;;;4949961;28;20539;-79
2022/03/05 09:34:34;;;;;;;12.10;8.25;;;;;;;;;;4947492;28;20039;-79
2022/03/05 09:37:00;;;;;;;12.55;8.32;;;;;;;;;;4931397;28;20635;-79
2022/03/05 09:39:25;;;;;;;12.93;8.50;;;;;;;;;;4955214;28;20066;-79
2022/03/05 09:41:53;;;;;;;15.05;8.90;;;;;;;;;;4942849;28;20109;-78
2022/03/05 09:44:18;;;;;;;14.60;8.55;;;;;;;;;;4961637;28;20045;-78
2022/03/05 09:46:44;;;;;;;13.60;8.77;;;;;;;;;;4952053;28;20039;-78
2022/03/05 09:49:11;;;;;;;14.25;8.88;;;;;;;;;;4962607;28;20051;-78
2022/03/05 09:51:37;;;;;;;15.10;9.05;;;;;;;;;;4962224;28;20049;-78
2022/03/05 09:54:04;;;;;;;14.68;8.82;;;;;;;;;;4966723;28;20058;-78
2022/03/05 09:56:30;;;;;;;14.57;8.70;;;;;;;;;;4961550;28;20047;-78
2022/03/05 09:58:55;;;;;;;12.57;8.52;;;;;;;;;;4941342;28;20040;-78
2022/03/05 10:01:21;;;;;;;15.85;8.55;;;;;;;;;;4955505;28;20126;-78
2022/03/05 10:03:49;;;;;;;15.23;8.45;;;;;;;;;;4958058;28;20043;-78
2022/03/05 10:06:27;;;;;;;12.25;9.18;;;;;;;;;;4957913;28;20062;-78
2022/03/05 10:08:55;;;;;;;13.07;7.60;;;;;;;;;;4927874;28;20050;-79
2022/03/05 10:11:21;;;;;;;13.50;7.90;;;;;;;;;;4942623;28;20351;-78
2022/03/05 10:13:47;;;;;;;11.52;7.55;;;;;;;;;;4942702;28;20066;-79
2022/03/05 10:16:27;;;;;;;9.32;7.00;;;;;;;;;;4930389;28;20042;-78
2022/03/05 10:18:54;;;;;;;8.68;6.70;;;;;;;;;;4951244;28;20477;-78
2022/03/05 10:21:27;;;;;;;9.57;7.03;;;;;;;;;;4962158;28;20484;-78
2022/03/05 10:24:04;;;;;;;13.85;8.50;;;;;;;;;;4946155;28;20461;-78
2022/03/05 10:26:48;;;;;;;10.80;7.90;;;;;;;;;;4951819;28;20077;-79
2022/03/05 10:29:19;;;;;;;12.70;7.53;;;;;;;;;;4976161;28;20141;-77
2022/03/05 10:31:58;;;;;;;12.05;8.20;;;;;;;;;;4990319;28;20622;-78
2022/03/05 10:34:24;;;;;;;11.55;7.57;;;;;;;;;;4950118;28;20449;-78
2022/03/05 10:37:00;;;;;;;11.30;7.63;;;;;;;;;;4940687;28;20410;-78
2022/03/05 10:39:27;;;;;;;10.40;7.32;;;;;;;;;;4975766;28;20340;-78
2022/03/05 10:41:56;;;;;;;8.73;7.20;;;;;;;;;;4930276;28;20435;-78
2022/03/05 10:44:23;;;;;;;9.77;7.82;;;;;;;;;;4933657;28;20457;-78
2022/03/05 10:46:58;;;;;;;9.75;7.65;;;;;;;;;;4941840;28;20047;-78
2022/03/05 10:49:44;;;;;;;7.65;6.75;;;;;;;;;;4953378;28;20035;-78
2022/03/05 10:52:10;;;;;;;8.02;7.05;;;;;;;;;;4956634;28;20520;-79
2022/03/05 10:54:38;;;;;;;9.88;7.60;;;;;;;;;;4929852;28;20054;-79
2022/03/05 10:57:08;;;;;;;8.73;6.53;;;;;;;;;;4968242;28;20077;-79
2022/03/05 10:59:35;;;;;;;8.23;6.90;;;;;;;;;;4966523;28;20065;-79
2022/03/05 11:02:01;;;;;;;12.32;7.25;;;;;;;;;;4949794;28;20045;-79
2022/03/05 11:04:27;;;;;;;10.50;7.90;;;;;;;;;;4954178;28;20456;-79
2022/03/05 11:06:53;;;;;;;8.82;7.30;;;;;;;;;;4955674;28;20050;-79
2022/03/05 11:09:19;;;;;;;10.02;6.85;;;;;;;;;;4947811;28;20039;-79
2022/03/05 11:11:48;;;;;;;8.85;6.57;;;;;;;;;;4954209;28;20065;-79
2022/03/05 11:14:15;;;;;;;10.98;6.60;;;;;;;;;;4959382;28;20066;-79
2022/03/05 11:16:42;;;;;;;8.85;6.78;;;;;;;;;;4932775;28;20532;-79
2022/03/05 11:19:08;;;;;;;9.32;6.82;;;;;;;;;;4949151;28;20173;-79
2022/03/05 11:21:34;;;;;;;6.82;6.13;;;;;;;;;;4964977;28;20579;-79
2022/03/05 11:24:00;;;;;;;8.35;6.80;;;;;;;;;;4941653;28;20031;-79
2022/03/05 11:26:29;;;;;;;8.20;7.25;;;;;;;;;;4949885;28;20061;-79
2022/03/05 11:28:55;;;;;;;9.13;6.57;;;;;;;;;;4957856;28;20123;-78
2022/03/05 11:31:30;;;;;;;7.40;6.70;;;;;;;;;;4949133;28;20043;-79
2022/03/05 11:34:17;;;;;;;8.50;6.10;;;;;;;;;;4949014;28;20569;-77
2022/03/05 11:36:44;;;;;;;8.40;6.28;;;;;;;;;;4948454;28;20031;-77
2022/03/05 11:39:20;;;;;;;7.45;6.10;;;;;;;;;;4950602;28;20488;-77
2022/03/05 11:41:51;;;;;;;8.27;6.45;;;;;;;;;;4964248;28;20039;-77
2022/03/05 11:44:18;;;;;;;8.20;6.63;;;;;;;;;;4966713;28;20046;-79
2022/03/05 11:46:44;;;;;;;6.72;6.03;;;;;;;;;;4949017;28;20456;-79
2022/03/05 11:49:12;;;;;;;8.68;5.85;;;;;;;;;;4948818;28;20070;-79
2022/03/05 11:51:58;;;;;;;8.52;6.25;;;;;;;;;;4941113;28;20117;-79
2022/03/05 11:54:24;;;;;;;10.45;6.82;;;;;;;;;;4963358;28;20141;-79
2022/03/05 11:57:14;;;;;;;8.98;6.50;;;;;;;;;;4964943;28;20059;-79
2022/03/05 11:59:41;;;;;;;8.60;6.50;;;;;;;;;;4965722;28;20050;-79
2022/03/05 12:02:07;;;;;;;8.13;6.25;;;;;;;;;;4948873;28;20047;-79
2022/03/05 12:04:34;;;;;;;10.45;6.72;;;;;;;;;;4973812;28;20049;-79
2022/03/05 12:07:04;;;;;;;6.65;5.88;;;;;;;;;;4935104;28;20420;-79
2022/03/05 12:09:35;;;;;;;8.18;6.68;;;;;;;;;;4945160;28;20035;-79
2022/03/05 12:12:02;;;;;;;10.23;6.30;;;;;;;;;;4939157;28;20118;-79
2022/03/05 12:14:55;;;;;;;6.18;5.40;;;;;;;;;;4963784;28;20065;-79
2022/03/05 12:17:25;;;;;;;7.72;6.18;;;;;;;;;;4954387;28;20564;-79
2022/03/05 12:19:51;;;;;;;7.80;5.55;;;;;;;;;;4944680;28;20062;-79
2022/03/05 12:22:16;;;;;;;9.80;6.75;;;;;;;;;;4945580;28;20150;-79
2022/03/05 12:24:42;;;;;;;8.82;5.93;;;;;;;;;;4945661;28;20496;-79
2022/03/05 12:27:15;;;;;;;8.75;6.15;;;;;;;;;;4949369;28;20138;-79
2022/03/05 12:29:48;;;;;;;9.50;6.18;;;;;;;;;;4940159;28;20043;-79
2022/03/05 12:32:15;;;;;;;6.53;5.03;;;;;;;;;;4951269;28;20051;-79
2022/03/05 12:34:40;;;;;;;5.45;4.90;;;;;;;;;;4972426;28;20394;-79
2022/03/05 12:37:06;;;;;;;6.13;4.85;;;;;;;;;;4936830;28;20713;-79
2022/03/05 12:39:32;;;;;;;8.63;5.13;;;;;;;;;;4944730;28;20047;-79
2022/03/05 12:41:57;;;;;;;8.63;5.25;;;;;;;;;;4963460;28;20118;-79
2022/03/05 12:44:23;;;;;;;6.75;5.47;;;;;;;;;;4958074;28;20043;-80
2022/03/05 12:46:49;;;;;;;7.93;6.00;;;;;;;;;;4947981;28;20043;-79
2022/03/05 12:49:15;;;;;;;12.02;5.32;;;;;;;;;;4962804;28;20134;-79
2022/03/05 12:51:42;;;;;;;8.90;5.15;;;;;;;;;;4944469;28;20040;-79
2022/03/05 12:54:08;;;;;;;9.00;5.35;;;;;;;;;;4984981;28;20561;-79
2022/03/05 12:56:36;;;;;;;8.27;5.40;;;;;;;;;;4935862;28;20051;-79
2022/03/05 12:59:03;;;;;;;6.88;4.30;;;;;;;;;;4941965;28;20050;-79
2022/03/05 13:01:29;;;;;;;5.47;4.28;;;;;;;;;;4963200;28;20226;-79
2022/03/05 13:03:56;;;;;;;6.93;4.70;;;;;;;;;;4971021;28;20043;-79
2022/03/05 13:06:22;;;;;;;7.97;4.63;;;;;;;;;;4933496;28;20046;-80
2022/03/05 13:08:47;;;;;;;6.78;4.13;;;;;;;;;;4939097;28;20039;-80
2022/03/05 13:11:19;;;;;;;7.25;4.72;;;;;;;;;;4940851;28;20043;-79
2022/03/05 13:13:47;;;;;;;6.65;4.15;;;;;;;;;;4953083;28;20039;-80
2022/03/05 13:16:24;;;;;;;5.70;3.95;;;;;;;;;;4939729;28;20047;-80
2022/03/05 13:19:01;;;;;;;6.32;4.05;;;;;;;;;;4937518;28;20039;-79
2022/03/05 13:21:27;;;;;;;5.35;4.20;;;;;;;;;;4927646;28;20110;-80
2022/03/05 13:23:53;;;;;;;6.88;3.60;;;;;;;;;;4962905;28;20451;-80
2022/03/05 13:26:19;;;;;;;5.70;3.80;;;;;;;;;;4950284;28;20054;-79
2022/03/05 13:28:45;;;;;;;5.68;3.67;;;;;;;;;;4959324;28;20127;-80
2022/03/05 13:31:11;;;;;;;5.97;4.18;;;;;;;;;;4962803;28;20127;-80
2022/03/05 13:33:50;;;;;;;5.55;4.07;;;;;;;;;;4963152;28;20571;-79
2022/03/05 13:36:24;;;;;;;5.97;3.88;;;;;;;;;;4962934;28;20445;-80
2022/03/05 13:38:52;;;;;;;6.40;4.07;;;;;;;;;;4946567;28;20043;-80
2022/03/05 13:41:24;;;;;;;5.50;4.50;;;;;;;;;;4951952;28;20441;-80
2022/03/05 13:43:50;;;;;;;5.45;3.63;;;;;;;;;;4946634;28;20587;-80
2022/03/05 13:46:18;;;;;;;6.63;3.88;;;;;;;;;;4963362;28;20077;-80
2022/03/05 13:48:50;;;;;;;4.28;3.88;;;;;;;;;;4947064;28;20047;-80
2022/03/05 13:51:21;;;;;;;7.07;4.38;;;;;;;;;;4950238;28;20046;-80
2022/03/05 13:53:55;;;;;;;4.60;3.67;;;;;;;;;;4938657;28;20079;-80
2022/03/05 13:56:21;;;;;;;5.40;3.67;;;;;;;;;;4960900;28;20094;-79
2022/03/05 13:58:51;;;;;;;7.70;3.90;;;;;;;;;;4942772;28;20047;-80
2022/03/05 14:01:32;;;;;;;4.57;4.05;;;;;;;;;;4927998;28;20352;-80
2022/03/05 14:04:13;;;;;;;5.88;3.72;;;;;;;;;;4958957;28;20509;-80
2022/03/05 14:06:59;;;;;;;5.07;3.42;;;;;;;;;;4979919;28;20039;-80
2022/03/05 14:09:30;;;;;;;6.32;3.90;;;;;;;;;;4954982;28;20412;-80
2022/03/05 14:12:11;;;;;;;4.90;3.50;;;;;;;;;;4927183;28;20059;-79
2022/03/05 14:14:48;;;;;;;7.13;3.47;;;;;;;;;;4950114;28;20043;-80
2022/03/05 14:17:25;;;;;;;5.32;3.05;;;;;;;;;;4938895;28;20051;-80
2022/03/05 14:20:10;;;;;;;4.57;3.05;;;;;;;;;;4952503;28;20039;-80
2022/03/05 14:22:38;;;;;;;4.60;3.95;;;;;;;;;;4959396;28;20121;-80
2022/03/05 14:25:05;;;;;;;6.57;4.65;;;;;;;;;;4953143;28;20146;-80
2022/03/05 14:27:31;;;;;;;6.85;4.07;;;;;;;;;;4967130;28;20077;-79
2022/03/05 14:29:57;;;;;;;5.93;3.95;;;;;;;;;;4949108;28;20044;-79